Eurocargo Venezia — IBKS — position and weather

sailwx.info

Track history (hours):
 
Tides and Currents Weather Stations Pressure Air Temp Water Temp Dewpoint Dewpoint Depression Visibility Wind Speed Wind Dir Waves Ship Positions

Eurocargo Venezia

Last reported at 2017-Feb-24 10:33 UTC. Time now 2017-Feb-24 10:35 UTC.
Position N 38°16' E 015°40'.

Length 200 m; draft 7.6 m.

Type: Ship (hazmat cat D). MMSI: 247297200.

Date/timePositionNaut miles runAvg speedWind from/ knotsBaromVisibWave heightAir tempDewpointWater temp
2017-Feb-24 10:33N 38°16' E 015°40'1717.2
2017-Feb-24 09:33N 38°32' E 015°33'1919.0
2017-Feb-24 08:33N 38°50' E 015°22'33818.8
2017-Feb-23 14:33N 43°02' E 010°23'1918.7
2017-Feb-23 13:33N 43°20' E 010°15'1312.9
2017-Feb-23 12:34N 43°32' E 010°17'3 2.5
2017-Feb-23 11:31N 43°35' E 010°19'0 0.0
2017-Feb-23 10:31N 43°35' E 010°19'0 0.0
2017-Feb-23 09:31N 43°35' E 010°19'0 0.0
2017-Feb-23 08:33N 43°35' E 010°19'0 0.0
2017-Feb-23 07:31N 43°35' E 010°19'0 0.0
2017-Feb-23 06:31N 43°35' E 010°19'0 0.0
2017-Feb-23 05:30N 43°35' E 010°19'2 1.6
2017-Feb-23 04:33N 43°34' E 010°18'8 8.1
2017-Feb-23 03:33N 43°29' E 010°09'1515.1
2017-Feb-23 02:33N 43°36' E 009°50'1616.3
2017-Feb-23 01:34N 43°48' E 009°36'1616.3
2017-Feb-23 00:34N 44°01' E 009°21'1616.1
2017-Feb-22 23:34N 44°13' E 009°06'1413.8
2017-Feb-22 22:33N 44°24' E 008°55'1 1.2
2017-Feb-22 21:31N 44°24' E 008°53'0 0.0
2017-Feb-22 20:31N 44°24' E 008°53'0 0.0
2017-Feb-22 19:25N 44°24' E 008°53'0 0.0
2017-Feb-22 18:28N 44°24' E 008°53'0 0.0
2017-Feb-22 17:31N 44°24' E 008°53'0 0.0
2017-Feb-22 16:28N 44°24' E 008°53'0 0.0
2017-Feb-22 15:31N 44°24' E 008°53'0 0.0
2017-Feb-22 14:31N 44°24' E 008°53'0 0.0
2017-Feb-22 13:31N 44°24' E 008°53'0 0.2
2017-Feb-22 12:33N 44°24' E 008°53'7 6.7
2017-Feb-22 11:34N 44°19' E 008°60'1818.2
2017-Feb-22 10:34N 44°05' E 009°16'1818.0
2017-Feb-22 09:34N 43°51' E 009°32'1818.3
2017-Feb-22 08:34N 43°37' E 009°48'1818.1
2017-Feb-22 07:34N 43°25' E 010°06'2019.3
2017-Feb-22 06:31N 43°07' E 010°18'32118.8
2017-Feb-21 13:30N 39°09' E 015°05'1818.8
2017-Feb-21 12:33N 38°55' E 015°18'1918.9
2017-Feb-21 11:33N 38°39' E 015°30'1919.2
2017-Feb-21 10:34N 38°21' E 015°41'1413.8
2017-Feb-21 09:34N 38°08' E 015°36'1817.9
2017-Feb-21 08:33N 37°52' E 015°27'2519.2
2017-Feb-21 07:16N 37°30' E 015°13'75 5.5
2017-Feb-20 17:33N 36°17' E 014°50'1919.5
2017-Feb-20 16:33N 36°01' E 014°36'9 8.2
2017-Feb-20 15:28N 35°53' E 014°31'0 0.0
2017-Feb-20 14:28N 35°53' E 014°31'0 0.0
2017-Feb-20 13:22N 35°53' E 014°31'0 0.0
2017-Feb-20 12:28N 35°53' E 014°31'0 0.0
2017-Feb-20 09:28N 35°53' E 014°31'0 0.0
2017-Feb-20 08:31N 35°53' E 014°31'0 0.0
2017-Feb-20 07:16N 35°53' E 014°31'0 0.0
2017-Feb-20 06:31N 35°53' E 014°31'0 0.1
2017-Feb-20 05:29N 35°53' E 014°31'1212.4
2017-Feb-20 04:33N 36°03' E 014°39'8911.1
2017-Feb-19 20:33N 37°29' E 015°06'9 7.2
2017-Feb-19 19:19N 37°33' E 015°15'1721.2
2017-Feb-19 18:32N 37°48' E 015°24'2020.7
2017-Feb-19 17:34N 38°07' E 015°34'1616.1
2017-Feb-19 16:33N 38°23' E 015°39'2120.5
2017-Feb-19 15:33N 38°41' E 015°27'2221.0
2017-Feb-19 14:30N 39°00' E 015°13'31320.6
2017-Feb-18 23:16N 42°51' E 010°31'1420.3
2017-Feb-18 22:33N 43°03' E 010°20'2120.6
2017-Feb-18 21:34N 43°21' E 010°08'2020.3
2017-Feb-18 20:34N 43°36' E 009°49'2120.9
2017-Feb-18 19:34N 43°52' E 009°30'2120.8
2017-Feb-18 18:34N 44°08' E 009°11'1717.2
2017-Feb-18 17:33N 44°22' E 008°57'4 3.7
2017-Feb-18 16:32N 44°24' E 008°53'0 0.0
2017-Feb-18 15:32N 44°24' E 008°53'0 0.0
2017-Feb-18 14:32N 44°24' E 008°53'0 0.0
2017-Feb-18 13:32N 44°24' E 008°53'0 0.0
2017-Feb-18 12:32N 44°24' E 008°53'0 0.0
2017-Feb-18 11:32N 44°24' E 008°53'0 0.0
2017-Feb-18 10:32N 44°24' E 008°53'0 0.0
2017-Feb-18 09:32N 44°24' E 008°53'0 0.0
2017-Feb-18 08:32N 44°24' E 008°53'0 0.0
2017-Feb-18 07:29N 44°24' E 008°53'0 0.0
2017-Feb-18 06:33N 44°24' E 008°53'5 5.3
2017-Feb-18 05:33N 44°21' E 008°59'1717.2
2017-Feb-18 04:33N 44°08' E 009°14'1817.7
2017-Feb-18 03:33N 43°54' E 009°30'1817.9
2017-Feb-18 02:33N 43°40' E 009°46'1817.8
2017-Feb-18 01:33N 43°28' E 010°03'1817.9
2017-Feb-18 00:33N 43°12' E 010°15'32218.7
2017-Feb-17 07:18N 39°13' E 015°03'1618.9
2017-Feb-17 06:28N 39°00' E 015°13'1818.9
2017-Feb-17 05:32N 38°45' E 015°25'1919.3
2017-Feb-17 04:33N 38°28' E 015°36'1414.0
2017-Feb-17 03:33N 38°14' E 015°37'1818.4
2017-Feb-17 02:33N 37°57' E 015°29'2020.4
2017-Feb-17 01:33N 37°38' E 015°19'87 7.2
2017-Feb-16 13:23N 36°14' E 014°50'1720.2
2017-Feb-16 12:33N 36°00' E 014°37'9 4.2
2017-Feb-16 10:24N 35°53' E 014°31'0 0.0
2017-Feb-16 09:30N 35°53' E 014°31'0 0.0
2017-Feb-16 07:30N 35°53' E 014°31'0 0.0
2017-Feb-16 06:30N 35°53' E 014°31'0 0.0
2017-Feb-16 05:30N 35°53' E 014°31'0 0.0
2017-Feb-16 04:27N 35°53' E 014°31'0 0.0
2017-Feb-16 03:30N 35°53' E 014°31'9 9.8
2017-Feb-16 02:33N 36°01' E 014°37'9017.8
2017-Feb-15 21:30N 37°27' E 015°09'10 0.9
2017-Feb-15 10:33N 37°35' E 015°16'2120.9
2017-Feb-15 09:33N 37°54' E 015°26'1818.5
2017-Feb-15 08:33N 38°11' E 015°35'1413.9
2017-Feb-15 07:33N 38°25' E 015°36'1818.4
2017-Feb-15 06:33N 38°42' E 015°27'2019.0
2017-Feb-15 05:30N 38°60' E 015°15'32518.1
2017-Feb-14 11:33N 42°60' E 010°23'  
Track history (hours):
 
Tides and Currents Weather Stations Pressure Air Temp Water Temp Dewpoint Dewpoint Depression Visibility Wind Speed Wind Dir Waves Ship Positions

Eurocargo Venezia

Last reported at 2017-Feb-24 10:33 UTC. Time now 2017-Feb-24 10:35 UTC.
Position N 38°16' E 015°40'.

Length 200 m; draft 7.6 m.

Type: Ship (hazmat cat D). MMSI: 247297200.

Date/timePositionNaut miles runAvg speedWind from/ knotsBaromVisibWave heightAir tempDewpointWater temp
2017-Feb-24 10:33N 38°16' E 015°40'1717.2
2017-Feb-24 09:33N 38°32' E 015°33'1919.0
2017-Feb-24 08:33N 38°50' E 015°22'33818.8
2017-Feb-23 14:33N 43°02' E 010°23'1918.7
2017-Feb-23 13:33N 43°20' E 010°15'1312.9
2017-Feb-23 12:34N 43°32' E 010°17'3 2.5
2017-Feb-23 11:31N 43°35' E 010°19'0 0.0
2017-Feb-23 10:31N 43°35' E 010°19'0 0.0
2017-Feb-23 09:31N 43°35' E 010°19'0 0.0
2017-Feb-23 08:33N 43°35' E 010°19'0 0.0
2017-Feb-23 07:31N 43°35' E 010°19'0 0.0
2017-Feb-23 06:31N 43°35' E 010°19'0 0.0
2017-Feb-23 05:30N 43°35' E 010°19'2 1.6
2017-Feb-23 04:33N 43°34' E 010°18'8 8.1
2017-Feb-23 03:33N 43°29' E 010°09'1515.1
2017-Feb-23 02:33N 43°36' E 009°50'1616.3
2017-Feb-23 01:34N 43°48' E 009°36'1616.3
2017-Feb-23 00:34N 44°01' E 009°21'1616.1
2017-Feb-22 23:34N 44°13' E 009°06'1413.8
2017-Feb-22 22:33N 44°24' E 008°55'1 1.2
2017-Feb-22 21:31N 44°24' E 008°53'0 0.0
2017-Feb-22 20:31N 44°24' E 008°53'0 0.0
2017-Feb-22 19:25N 44°24' E 008°53'0 0.0
2017-Feb-22 18:28N 44°24' E 008°53'0 0.0
2017-Feb-22 17:31N 44°24' E 008°53'0 0.0
2017-Feb-22 16:28N 44°24' E 008°53'0 0.0
2017-Feb-22 15:31N 44°24' E 008°53'0 0.0
2017-Feb-22 14:31N 44°24' E 008°53'0 0.0
2017-Feb-22 13:31N 44°24' E 008°53'0 0.2
2017-Feb-22 12:33N 44°24' E 008°53'7 6.7
2017-Feb-22 11:34N 44°19' E 008°60'1818.2
2017-Feb-22 10:34N 44°05' E 009°16'1818.0
2017-Feb-22 09:34N 43°51' E 009°32'1818.3
2017-Feb-22 08:34N 43°37' E 009°48'1818.1
2017-Feb-22 07:34N 43°25' E 010°06'2019.3
2017-Feb-22 06:31N 43°07' E 010°18'32118.8
2017-Feb-21 13:30N 39°09' E 015°05'1818.8
2017-Feb-21 12:33N 38°55' E 015°18'1918.9
2017-Feb-21 11:33N 38°39' E 015°30'1919.2
2017-Feb-21 10:34N 38°21' E 015°41'1413.8
2017-Feb-21 09:34N 38°08' E 015°36'1817.9
2017-Feb-21 08:33N 37°52' E 015°27'2519.2
2017-Feb-21 07:16N 37°30' E 015°13'75 5.5
2017-Feb-20 17:33N 36°17' E 014°50'1919.5
2017-Feb-20 16:33N 36°01' E 014°36'9 8.2
2017-Feb-20 15:28N 35°53' E 014°31'0 0.0
2017-Feb-20 14:28N 35°53' E 014°31'0 0.0
2017-Feb-20 13:22N 35°53' E 014°31'0 0.0
2017-Feb-20 12:28N 35°53' E 014°31'0 0.0
2017-Feb-20 09:28N 35°53' E 014°31'0 0.0
2017-Feb-20 08:31N 35°53' E 014°31'0 0.0
2017-Feb-20 07:16N 35°53' E 014°31'0 0.0
2017-Feb-20 06:31N 35°53' E 014°31'0 0.1
2017-Feb-20 05:29N 35°53' E 014°31'1212.4
2017-Feb-20 04:33N 36°03' E 014°39'8911.1
2017-Feb-19 20:33N 37°29' E 015°06'9 7.2
2017-Feb-19 19:19N 37°33' E 015°15'1721.2
2017-Feb-19 18:32N 37°48' E 015°24'2020.7
2017-Feb-19 17:34N 38°07' E 015°34'1616.1
2017-Feb-19 16:33N 38°23' E 015°39'2120.5
2017-Feb-19 15:33N 38°41' E 015°27'2221.0
2017-Feb-19 14:30N 39°00' E 015°13'31320.6
2017-Feb-18 23:16N 42°51' E 010°31'1420.3
2017-Feb-18 22:33N 43°03' E 010°20'2120.6
2017-Feb-18 21:34N 43°21' E 010°08'2020.3
2017-Feb-18 20:34N 43°36' E 009°49'2120.9
2017-Feb-18 19:34N 43°52' E 009°30'2120.8
2017-Feb-18 18:34N 44°08' E 009°11'1717.2
2017-Feb-18 17:33N 44°22' E 008°57'4 3.7
2017-Feb-18 16:32N 44°24' E 008°53'0 0.0
2017-Feb-18 15:32N 44°24' E 008°53'0 0.0
2017-Feb-18 14:32N 44°24' E 008°53'0 0.0
2017-Feb-18 13:32N 44°24' E 008°53'0 0.0
2017-Feb-18 12:32N 44°24' E 008°53'0 0.0
2017-Feb-18 11:32N 44°24' E 008°53'0 0.0
2017-Feb-18 10:32N 44°24' E 008°53'0 0.0
2017-Feb-18 09:32N 44°24' E 008°53'0 0.0
2017-Feb-18 08:32N 44°24' E 008°53'0 0.0
2017-Feb-18 07:29N 44°24' E 008°53'0 0.0
2017-Feb-18 06:33N 44°24' E 008°53'5 5.3
2017-Feb-18 05:33N 44°21' E 008°59'1717.2
2017-Feb-18 04:33N 44°08' E 009°14'1817.7
2017-Feb-18 03:33N 43°54' E 009°30'1817.9
2017-Feb-18 02:33N 43°40' E 009°46'1817.8
2017-Feb-18 01:33N 43°28' E 010°03'1817.9
2017-Feb-18 00:33N 43°12' E 010°15'32218.7
2017-Feb-17 07:18N 39°13' E 015°03'1618.9
2017-Feb-17 06:28N 39°00' E 015°13'1818.9
2017-Feb-17 05:32N 38°45' E 015°25'1919.3
2017-Feb-17 04:33N 38°28' E 015°36'1414.0
2017-Feb-17 03:33N 38°14' E 015°37'1818.4
2017-Feb-17 02:33N 37°57' E 015°29'2020.4
2017-Feb-17 01:33N 37°38' E 015°19'87 7.2
2017-Feb-16 13:23N 36°14' E 014°50'1720.2
2017-Feb-16 12:33N 36°00' E 014°37'9 4.2
2017-Feb-16 10:24N 35°53' E 014°31'0 0.0
2017-Feb-16 09:30N 35°53' E 014°31'0 0.0
2017-Feb-16 07:30N 35°53' E 014°31'0 0.0
2017-Feb-16 06:30N 35°53' E 014°31'0 0.0
2017-Feb-16 05:30N 35°53' E 014°31'0 0.0
2017-Feb-16 04:27N 35°53' E 014°31'0 0.0
2017-Feb-16 03:30N 35°53' E 014°31'9 9.8
2017-Feb-16 02:33N 36°01' E 014°37'9017.8
2017-Feb-15 21:30N 37°27' E 015°09'10 0.9
2017-Feb-15 10:33N 37°35' E 015°16'2120.9
2017-Feb-15 09:33N 37°54' E 015°26'1818.5
2017-Feb-15 08:33N 38°11' E 015°35'1413.9
2017-Feb-15 07:33N 38°25' E 015°36'1818.4
2017-Feb-15 06:33N 38°42' E 015°27'2019.0
2017-Feb-15 05:30N 38°60' E 015°15'32518.1
2017-Feb-14 11:33N 42°60' E 010°23'  

Dump ship's entire track history